Time;durP1;ratioP1;P1;durP2;ratioP2;P2;SDS_P1;SDS_P2;PMS_P1;PMS_P2;Temp;Humidity;BMP_temperature;BMP_pressure;BME280_temperature;BME280_humidity;BME280_pressure;Samples;Min_cycle;Max_cycle;Signal;HPM_P1;HPM_P2
2021/12/13 00:00:27;;;;;;;0.77;0.77;;;9.30;99.90;;;;;;5054581;28;20205;-79
2021/12/13 00:03:06;;;;;;;2.90;2.58;;;9.30;99.90;;;;;;5055033;28;20217;-76
2021/12/13 00:05:37;;;;;;;4.75;4.32;;;9.30;99.90;;;;;;5055260;28;20204;-78
2021/12/13 00:08:08;;;;;;;4.93;3.05;;;9.20;99.90;;;;;;5054559;28;20657;-80
2021/12/13 00:10:43;;;;;;;6.25;4.78;;;9.20;99.90;;;;;;5054954;28;20178;-78
2021/12/13 00:13:14;;;;;;;4.03;3.92;;;9.20;99.90;;;;;;5055241;28;20232;-78
2021/12/13 00:15:48;;;;;;;1.15;1.10;;;9.20;99.90;;;;;;5054802;28;20219;-78
2021/12/13 00:18:21;;;;;;;2.55;2.25;;;9.20;99.90;;;;;;5054971;28;20182;-78
2021/12/13 00:20:53;;;;;;;4.13;1.27;;;9.20;99.90;;;;;;5054593;28;20197;-78
2021/12/13 00:23:25;;;;;;;2.63;2.03;;;9.20;99.90;;;;;;5054360;28;20219;-78
2021/12/13 00:25:55;;;;;;;10.70;6.65;;;9.20;99.90;;;;;;5054671;28;20228;-73
2021/12/13 00:28:24;;;;;;;4.55;3.45;;;9.20;99.90;;;;;;5054233;28;20208;-78
2021/12/13 00:31:02;;;;;;;1.98;1.83;;;9.20;99.90;;;;;;5054117;28;20200;-78
2021/12/13 00:33:38;;;;;;;0.68;0.68;;;9.20;99.90;;;;;;5054020;28;20224;-78
2021/12/13 00:36:10;;;;;;;4.30;2.45;;;9.20;99.90;;;;;;5054405;28;20215;-77
2021/12/13 00:38:51;;;;;;;5.70;5.18;;;9.20;99.90;;;;;;5053918;28;20198;-78
2021/12/13 00:41:23;;;;;;;1.30;1.30;;;9.20;99.90;;;;;;5053974;28;20663;-78
2021/12/13 00:43:54;;;;;;;4.93;3.17;;;9.20;99.90;;;;;;5053955;28;20580;-75
2021/12/13 00:46:23;;;;;;;3.70;3.55;;;9.20;99.90;;;;;;5054273;28;20635;-77
2021/12/13 00:48:55;;;;;;;2.30;2.15;;;9.20;99.90;;;;;;5053864;28;20201;-78
2021/12/13 00:51:25;;;;;;;3.60;3.05;;;9.20;99.90;;;;;;5053745;28;20647;-78
2021/12/13 00:53:53;;;;;;;5.15;4.75;;;9.20;99.90;;;;;;5052759;28;20596;-78
2021/12/13 00:56:44;;;;;;;2.13;1.95;;;9.20;99.90;;;;;;5054097;28;20202;-78
2021/12/13 00:59:13;;;;;;;0.82;0.82;;;9.20;99.90;;;;;;5053415;28;20685;-78
2021/12/13 01:01:41;;;;;;;1.70;1.70;;;9.20;99.90;;;;;;5053696;28;20223;-78
2021/12/13 01:04:14;;;;;;;3.63;2.88;;;9.20;99.90;;;;;;5053603;28;20753;-78
2021/12/13 01:07:33;;;;;;;1.55;1.55;;;9.20;99.90;;;;;;5053474;28;20572;-78
2021/12/13 01:10:48;;;;;;;2.45;2.13;;;9.20;99.90;;;;;;5053765;28;20201;-76
2021/12/13 01:13:19;;;;;;;4.35;3.20;;;9.20;99.90;;;;;;5040253;28;20569;-78
2021/12/13 01:15:52;;;;;;;3.53;3.20;;;9.20;99.90;;;;;;5053376;28;20192;-78
2021/12/13 01:18:28;;;;;;;4.80;3.58;;;9.20;99.90;;;;;;5053533;28;20177;-78
2021/12/13 01:21:04;;;;;;;0.40;0.30;;;9.20;99.90;;;;;;5053241;28;20231;-79
2021/12/13 01:23:42;;;;;;;5.25;4.72;;;9.20;99.90;;;;;;5053176;28;20676;-78
2021/12/13 01:26:36;;;;;;;3.78;2.22;;;9.20;99.90;;;;;;5053210;28;20192;-78
2021/12/13 01:29:08;;;;;;;4.70;4.15;;;9.20;99.90;;;;;;5052780;28;20196;-78
2021/12/13 01:31:38;;;;;;;1.52;1.42;;;9.20;99.90;;;;;;5053038;28;20199;-77
2021/12/13 01:34:08;;;;;;;3.90;2.95;;;9.20;99.90;;;;;;5053428;28;20220;-78
2021/12/13 01:36:48;;;;;;;4.43;3.95;;;9.20;99.90;;;;;;5053556;28;20178;-77
2021/12/13 01:39:18;;;;;;;1.65;1.65;;;9.10;99.90;;;;;;5053145;28;20193;-78
2021/12/13 01:41:49;;;;;;;0.40;0.30;;;9.20;99.90;;;;;;5054171;28;20196;-78
2021/12/13 01:44:21;;;;;;;3.95;3.65;;;9.20;99.90;;;;;;5053344;28;20208;-78
2021/12/13 01:46:51;;;;;;;4.93;3.08;;;9.20;99.90;;;;;;5052807;28;20189;-78
2021/12/13 01:49:20;;;;;;;1.45;1.35;;;9.20;99.90;;;;;;5053297;28;20198;-78
2021/12/13 01:51:48;;;;;;;9.00;6.82;;;9.20;99.90;;;;;;5052878;28;20293;-75
2021/12/13 01:54:19;;;;;;;0.80;0.80;;;9.10;99.90;;;;;;5053024;28;20548;-78
2021/12/13 01:56:54;;;;;;;2.15;1.40;;;9.10;99.90;;;;;;5052542;28;20185;-76
2021/12/13 01:59:42;;;;;;;3.13;2.97;;;9.10;99.90;;;;;;5053036;28;20201;-78
2021/12/13 02:02:25;;;;;;;0.93;0.93;;;9.10;99.90;;;;;;5052922;28;20245;-77
2021/12/13 02:05:01;;;;;;;4.72;4.35;;;9.10;99.90;;;;;;5051462;28;20211;-74
2021/12/13 02:07:37;;;;;;;10.40;4.03;;;9.10;99.90;;;;;;5052855;28;20192;-78
2021/12/13 02:10:10;;;;;;;1.75;1.73;;;9.10;99.90;;;;;;5052592;28;20642;-78
2021/12/13 02:12:41;;;;;;;3.13;1.60;;;9.10;99.90;;;;;;5052781;28;20556;-78
2021/12/13 02:17:54;;;;;;;2.20;2.05;;;9.00;99.90;;;;;;5052244;28;20184;-78
2021/12/13 02:20:29;;;;;;;1.05;0.65;;;9.00;99.90;;;;;;5052571;28;20576;-78
2021/12/13 02:22:57;;;;;;;0.70;0.50;;;9.00;99.90;;;;;;5052488;28;20212;-78
2021/12/13 02:25:28;;;;;;;1.13;1.02;;;9.00;99.90;;;;;;5052707;28;20292;-78
2021/12/13 02:27:59;;;;;;;1.23;1.13;;;9.00;99.90;;;;;;5051943;28;20462;-74
2021/12/13 02:30:32;;;;;;;0.40;0.30;;;9.00;99.90;;;;;;5052506;28;20188;-78
2021/12/13 02:33:00;;;;;;;6.15;1.33;;;9.00;99.90;;;;;;5051947;28;20715;-78
2021/12/13 02:35:29;;;;;;;0.50;0.50;;;9.00;99.90;;;;;;5052489;28;20672;-77
2021/12/13 02:37:59;;;;;;;0.40;0.40;;;9.00;99.90;;;;;;5052232;28;20197;-74
2021/12/13 02:40:27;;;;;;;1.15;1.15;;;9.00;99.90;;;;;;5051729;28;20196;-78
2021/12/13 02:42:54;;;;;;;2.17;2.08;;;9.00;99.90;;;;;;5051640;28;20224;-78
2021/12/13 02:45:25;;;;;;;1.10;1.10;;;9.00;99.90;;;;;;5052514;28;20218;-77
2021/12/13 02:48:00;;;;;;;0.70;0.70;;;9.00;99.90;;;;;;5052168;28;20245;-78
2021/12/13 02:50:38;;;;;;;0.95;0.95;;;9.00;99.90;;;;;;5051991;28;20206;-78
2021/12/13 02:53:07;;;;;;;0.40;0.40;;;9.00;99.90;;;;;;5051053;28;20232;-78
2021/12/13 02:55:34;;;;;;;0.93;0.93;;;9.00;99.90;;;;;;5052532;28;20208;-78
2021/12/13 02:58:06;;;;;;;1.45;0.55;;;9.00;99.90;;;;;;5052062;28;20213;-78
2021/12/13 03:00:38;;;;;;;0.40;0.30;;;9.00;99.90;;;;;;5051725;28;20553;-78
2021/12/13 03:03:10;;;;;;;1.55;1.45;;;9.00;99.90;;;;;;5051579;28;20211;-77
2021/12/13 03:05:39;;;;;;;0.40;0.40;;;9.00;99.90;;;;;;5052073;28;20181;-78
2021/12/13 03:08:10;;;;;;;1.40;1.40;;;8.90;99.90;;;;;;5051744;28;20202;-78
2021/12/13 03:10:42;;;;;;;0.40;0.30;;;8.90;99.90;;;;;;5051683;28;20212;-78
2021/12/13 03:13:09;;;;;;;0.40;0.40;;;8.90;99.90;;;;;;5051622;28;20227;-77
2021/12/13 03:15:37;;;;;;;0.55;0.52;;;8.90;99.90;;;;;;5053306;28;20197;-78
2021/12/13 03:18:12;;;;;;;0.40;0.30;;;8.90;99.90;;;;;;5055645;28;20568;-76
2021/12/13 03:21:08;;;;;;;0.40;0.40;;;8.90;99.90;;;;;;5055573;28;20196;-76
2021/12/13 03:23:49;;;;;;;0.40;0.30;;;9.00;99.90;;;;;;5055467;28;20214;-77
2021/12/13 03:26:52;;;;;;;1.60;1.50;;;8.90;99.90;;;;;;5055118;28;20197;-78
2021/12/13 03:29:26;;;;;;;2.88;2.67;;;8.90;99.90;;;;;;5051762;28;20224;-78
2021/12/13 03:31:56;;;;;;;0.40;0.30;;;8.90;99.90;;;;;;5055973;28;20592;-78
2021/12/13 03:34:26;;;;;;;0.40;0.30;;;8.80;99.90;;;;;;5055094;28;20228;-78
2021/12/13 03:37:00;;;;;;;1.30;1.30;;;8.80;99.90;;;;;;5055574;28;20208;-77
2021/12/13 03:39:32;;;;;;;1.15;1.05;;;8.80;99.90;;;;;;5054930;28;20556;-78
2021/12/13 03:42:02;;;;;;;1.20;1.20;;;8.80;99.90;;;;;;5055181;28;20205;-78
2021/12/13 03:44:32;;;;;;;0.40;0.35;;;8.80;99.90;;;;;;5054981;28;20226;-78
2021/12/13 03:47:07;;;;;;;2.33;1.05;;;8.80;99.90;;;;;;5055195;28;20670;-78
2021/12/13 03:49:39;;;;;;;0.40;0.30;;;8.80;99.90;;;;;;5055029;28;20205;-78
2021/12/13 03:52:16;;;;;;;1.45;1.35;;;8.80;99.90;;;;;;5054833;28;20210;-78
2021/12/13 03:54:46;;;;;;;2.75;2.55;;;8.80;99.90;;;;;;5055022;28;20221;-78
2021/12/13 03:57:15;;;;;;;0.50;0.50;;;8.80;99.90;;;;;;5055178;28;20205;-78
2021/12/13 03:59:44;;;;;;;1.25;1.13;;;8.80;99.90;;;;;;5054360;28;20197;-77
2021/12/13 04:02:16;;;;;;;0.40;0.30;;;8.80;99.90;;;;;;5054596;28;20223;-77
2021/12/13 04:04:46;;;;;;;0.40;0.30;;;8.70;99.90;;;;;;5055086;28;20276;-76
2021/12/13 04:07:17;;;;;;;1.67;1.58;;;8.70;99.90;;;;;;5055152;28;20568;-78
2021/12/13 04:09:48;;;;;;;0.60;0.50;;;8.70;99.90;;;;;;5054129;28;20197;-78
2021/12/13 04:12:16;;;;;;;0.95;0.95;;;8.70;99.90;;;;;;5054801;28;20308;-77
2021/12/13 04:14:50;;;;;;;0.88;0.88;;;8.70;99.90;;;;;;5054229;28;20218;-77
2021/12/13 04:17:23;;;;;;;0.40;0.30;;;8.70;99.90;;;;;;5054694;28;20243;-78
2021/12/13 04:19:53;;;;;;;1.95;1.05;;;8.70;99.90;;;;;;5053858;28;20205;-77
2021/12/13 04:22:23;;;;;;;1.80;1.70;;;8.70;99.90;;;;;;5054567;28;20243;-78
2021/12/13 04:24:56;;;;;;;0.60;0.60;;;8.70;99.90;;;;;;5054302;28;20198;-77
2021/12/13 04:27:28;;;;;;;1.02;1.02;;;8.70;99.90;;;;;;5053169;28;20194;-78
2021/12/13 04:30:01;;;;;;;1.33;1.23;;;8.70;99.90;;;;;;5053882;28;20207;-78
2021/12/13 04:32:32;;;;;;;0.40;0.40;;;8.70;99.90;;;;;;5054042;28;20222;-78
2021/12/13 04:35:03;;;;;;;2.22;2.05;;;8.70;99.90;;;;;;5054386;28;20213;-77
2021/12/13 04:37:37;;;;;;;0.73;0.73;;;8.70;99.90;;;;;;5054137;28;20213;-78
2021/12/13 04:40:09;;;;;;;2.35;1.95;;;8.70;99.90;;;;;;5054588;28;20201;-78
2021/12/13 04:42:36;;;;;;;2.33;2.15;;;8.70;99.90;;;;;;5054423;28;20255;-79
2021/12/13 04:45:08;;;;;;;0.50;0.40;;;8.70;99.90;;;;;;5053430;28;20200;-78
2021/12/13 04:47:38;;;;;;;0.60;0.60;;;8.70;99.90;;;;;;5054183;28;20175;-78
2021/12/13 04:50:12;;;;;;;0.50;0.50;;;8.70;99.90;;;;;;5054100;28;20193;-78
2021/12/13 04:52:40;;;;;;;0.65;0.65;;;8.60;99.90;;;;;;5053932;28;20232;-78
2021/12/13 04:55:14;;;;;;;0.40;0.30;;;8.60;99.90;;;;;;5054405;28;20195;-78
2021/12/13 04:57:42;;;;;;;0.40;0.40;;;8.60;99.90;;;;;;5054309;28;20206;-78
2021/12/13 05:00:14;;;;;;;0.60;0.60;;;8.70;99.90;;;;;;5054480;28;20201;-78
2021/12/13 05:02:47;;;;;;;1.35;1.25;;;8.70;99.90;;;;;;5053992;28;20221;-78
2021/12/13 05:05:16;;;;;;;0.40;0.40;;;8.70;99.90;;;;;;5053804;28;20203;-78
2021/12/13 05:07:45;;;;;;;1.10;1.10;;;8.70;99.90;;;;;;5053506;28;20190;-78
2021/12/13 05:10:14;;;;;;;1.17;1.15;;;8.70;99.90;;;;;;5053619;28;20722;-78
2021/12/13 05:12:42;;;;;;;1.30;1.20;;;8.70;99.90;;;;;;5053647;28;20730;-77
2021/12/13 05:15:12;;;;;;;0.40;0.30;;;8.70;99.90;;;;;;5053434;28;20222;-78
2021/12/13 05:17:43;;;;;;;0.40;0.30;;;8.70;99.90;;;;;;5053641;28;20206;-79
2021/12/13 05:20:16;;;;;;;3.13;2.92;;;8.70;99.90;;;;;;5053394;28;20289;-78
2021/12/13 05:22:50;;;;;;;1.67;1.58;;;8.70;99.90;;;;;;5054591;28;20221;-79
2021/12/13 05:25:33;;;;;;;1.80;1.63;;;8.70;99.90;;;;;;5053287;28;20201;-79
2021/12/13 05:28:04;;;;;;;2.88;2.67;;;8.60;99.90;;;;;;5106429;22;20240;-79
2021/12/13 05:30:33;;;;;;;0.93;0.93;;;8.70;99.90;;;;;;5041633;28;20202;-77
2021/12/13 05:33:06;;;;;;;0.60;0.60;;;8.70;99.90;;;;;;5056913;28;20213;-79
2021/12/13 05:35:35;;;;;;;2.22;1.42;;;8.60;99.90;;;;;;5056770;28;20189;-79
2021/12/13 05:38:06;;;;;;;1.45;1.35;;;8.60;99.90;;;;;;5056095;28;20233;-79
2021/12/13 05:40:39;;;;;;;0.40;0.40;;;8.60;99.90;;;;;;5055511;28;20178;-78
2021/12/13 05:43:22;;;;;;;0.40;0.35;;;8.60;99.90;;;;;;5056237;28;20201;-78
2021/12/13 05:45:53;;;;;;;1.00;1.00;;;8.60;99.90;;;;;;5055842;28;20185;-78
2021/12/13 05:48:23;;;;;;;0.40;0.30;;;8.60;99.90;;;;;;5054520;28;20221;-75
2021/12/13 05:50:53;;;;;;;2.60;1.30;;;8.60;99.90;;;;;;5054559;28;20194;-79
2021/12/13 05:53:22;;;;;;;3.15;2.42;;;8.60;99.90;;;;;;5055325;28;20218;-79
2021/12/13 05:55:59;;;;;;;2.40;2.20;;;8.60;99.90;;;;;;5053913;28;20197;-79
2021/12/13 05:58:36;;;;;;;1.80;0.95;;;8.60;99.90;;;;;;5054603;28;20267;-79
2021/12/13 06:01:11;;;;;;;1.48;1.38;;;8.60;99.90;;;;;;5050040;28;20207;-78
2021/12/13 06:03:42;;;;;;;0.40;0.30;;;8.70;99.90;;;;;;5052810;28;20197;-79
2021/12/13 06:06:12;;;;;;;0.40;0.30;;;8.60;99.90;;;;;;5054648;28;20240;-78
2021/12/13 06:08:44;;;;;;;0.40;0.40;;;8.70;99.90;;;;;;5055346;28;20709;-80
2021/12/13 06:11:17;;;;;;;0.98;0.88;;;8.70;99.90;;;;;;5056652;28;20192;-80
2021/12/13 06:13:57;;;;;;;1.33;0.80;;;8.70;99.90;;;;;;5055074;28;20229;-77
2021/12/13 06:16:42;;;;;;;0.40;0.30;;;8.70;99.90;;;;;;5055111;28;20200;-79
2021/12/13 06:19:14;;;;;;;1.38;1.30;;;8.70;99.90;;;;;;5054354;28;20219;-79
2021/12/13 06:21:50;;;;;;;5.30;2.17;;;8.70;99.90;;;;;;5056046;28;20182;-80
2021/12/13 06:24:26;;;;;;;0.40;0.35;;;8.70;99.90;;;;;;5055924;28;20231;-79
2021/12/13 06:27:07;;;;;;;4.43;2.42;;;8.70;99.90;;;;;;5055329;28;20216;-78
2021/12/13 06:29:59;;;;;;;1.70;1.30;;;8.70;99.90;;;;;;5054849;28;20231;-80
2021/12/13 06:32:31;;;;;;;0.40;0.35;;;8.70;99.90;;;;;;5055408;28;20529;-76
2021/12/13 06:34:59;;;;;;;0.40;0.40;;;8.70;99.90;;;;;;5054874;28;20569;-79
2021/12/13 06:37:30;;;;;;;2.08;1.63;;;8.70;99.90;;;;;;5055093;28;20228;-78
2021/12/13 06:40:13;;;;;;;1.95;1.85;;;8.70;99.90;;;;;;5054807;28;20549;-79
2021/12/13 06:42:41;;;;;;;2.53;2.42;;;8.70;99.90;;;;;;5053656;28;20200;-78
2021/12/13 06:45:25;;;;;;;0.98;0.98;;;8.70;99.90;;;;;;5054370;28;20201;-79
2021/12/13 06:47:54;;;;;;;1.05;1.05;;;8.70;99.90;;;;;;5054840;28;20221;-79
2021/12/13 06:50:27;;;;;;;1.20;1.20;;;8.70;99.90;;;;;;5055554;28;20208;-79
2021/12/13 06:53:10;;;;;;;0.40;0.30;;;8.70;99.90;;;;;;5059710;28;20537;-78
2021/12/13 06:55:37;;;;;;;0.40;0.30;;;8.70;99.90;;;;;;5058954;28;20698;-79
2021/12/13 06:58:14;;;;;;;1.30;1.30;;;8.70;99.90;;;;;;5059963;28;20699;-79
2021/12/13 07:00:42;;;;;;;0.40;0.30;;;8.70;99.90;;;;;;5057973;28;20179;-78
2021/12/13 07:03:11;;;;;;;1.10;1.10;;;8.70;99.90;;;;;;5057607;28;20205;-78
2021/12/13 07:05:42;;;;;;;1.45;1.45;;;8.80;99.90;;;;;;5058129;28;20201;-78
2021/12/13 07:08:12;;;;;;;2.38;2.17;;;8.80;99.90;;;;;;5057454;28;20869;-77
2021/12/13 07:10:43;;;;;;;0.95;0.88;;;8.70;99.90;;;;;;5039587;28;20202;-78
2021/12/13 07:13:23;;;;;;;0.43;0.43;;;8.80;99.90;;;;;;5036071;28;20207;-78
2021/12/13 07:15:55;;;;;;;4.32;1.85;;;8.70;99.90;;;;;;5045391;28;20208;-79
2021/12/13 07:18:29;;;;;;;0.40;0.30;;;8.70;99.90;;;;;;5060885;28;20224;-78
2021/12/13 07:21:03;;;;;;;0.40;0.30;;;8.70;99.90;;;;;;5058774;28;20208;-79
2021/12/13 07:23:55;;;;;;;0.70;0.65;;;8.70;99.90;;;;;;5060995;28;20182;-78
2021/12/13 07:26:32;;;;;;;0.40;0.30;;;8.70;99.90;;;;;;5059008;28;20182;-78
2021/12/13 07:29:00;;;;;;;3.22;1.85;;;8.70;99.90;;;;;;5058047;28;20226;-78
2021/12/13 07:31:27;;;;;;;0.50;0.50;;;8.70;99.90;;;;;;5058591;28;20196;-76
2021/12/13 07:33:54;;;;;;;2.85;2.67;;;8.70;99.90;;;;;;5057991;28;20209;-78
2021/12/13 07:36:25;;;;;;;2.33;1.98;;;8.80;99.90;;;;;;5056933;28;20288;-78
2021/12/13 07:38:56;;;;;;;1.60;0.60;;;8.80;99.90;;;;;;5056343;28;20221;-77
2021/12/13 07:41:25;;;;;;;1.20;1.10;;;8.80;99.90;;;;;;5056738;28;20198;-77
2021/12/13 07:43:52;;;;;;;1.20;1.20;;;8.80;99.90;;;;;;5056117;28;20258;-77
2021/12/13 07:46:29;;;;;;;3.95;3.78;;;8.80;99.90;;;;;;5041563;28;20202;-78
2021/12/13 07:48:59;;;;;;;0.40;0.30;;;8.80;99.90;;;;;;5036016;28;20443;-78
2021/12/13 07:51:29;;;;;;;0.40;0.30;;;8.80;99.90;;;;;;5037004;28;20672;-77
2021/12/13 07:54:07;;;;;;;0.40;0.30;;;8.80;99.90;;;;;;5036948;28;20651;-78
2021/12/13 07:56:48;;;;;;;0.50;0.45;;;8.80;99.90;;;;;;5036531;28;20643;-77
2021/12/13 07:59:23;;;;;;;3.42;1.10;;;8.80;99.90;;;;;;5035542;28;20225;-78
2021/12/13 08:01:54;;;;;;;1.42;1.35;;;8.80;99.90;;;;;;5035201;28;20210;-78
2021/12/13 08:04:24;;;;;;;2.15;2.05;;;8.80;99.90;;;;;;5036771;28;20203;-78
2021/12/13 08:06:53;;;;;;;0.40;0.30;;;8.80;99.90;;;;;;5036018;28;20309;-77
2021/12/13 08:09:25;;;;;;;0.40;0.40;;;8.80;99.90;;;;;;5036039;28;20212;-78
2021/12/13 08:11:57;;;;;;;0.40;0.40;;;8.90;99.90;;;;;;5035982;28;20209;-77
2021/12/13 08:14:30;;;;;;;1.25;0.77;;;8.90;99.90;;;;;;5034670;28;20227;-77
2021/12/13 08:17:07;;;;;;;0.40;0.30;;;8.90;99.90;;;;;;5051591;28;20201;-78
2021/12/13 08:19:35;;;;;;;0.40;0.40;;;8.90;99.90;;;;;;5055705;28;20229;-79
2021/12/13 08:22:04;;;;;;;6.70;1.80;;;8.80;99.90;;;;;;5053416;28;20229;-78
2021/12/13 08:24:39;;;;;;;0.47;0.47;;;8.90;99.90;;;;;;5049763;28;20286;-76
2021/12/13 08:27:11;;;;;;;2.00;1.55;;;8.90;99.90;;;;;;5055569;28;20201;-78
2021/12/13 08:29:40;;;;;;;0.40;0.40;;;8.80;99.90;;;;;;5054759;28;20729;-78
2021/12/13 08:32:11;;;;;;;0.40;0.30;;;8.80;99.90;;;;;;5055962;28;20592;-78
2021/12/13 08:34:46;;;;;;;0.68;0.68;;;8.90;99.90;;;;;;5054339;28;20214;-78
2021/12/13 08:37:22;;;;;;;3.28;0.77;;;8.80;99.90;;;;;;5056120;28;20185;-78
2021/12/13 08:39:56;;;;;;;0.50;0.50;;;8.80;99.90;;;;;;5059413;28;20205;-78
2021/12/13 08:42:27;;;;;;;0.40;0.30;;;8.90;99.90;;;;;;5060014;28;20188;-78
2021/12/13 08:44:58;;;;;;;0.60;0.60;;;8.80;99.90;;;;;;5058737;28;20185;-78
2021/12/13 08:47:31;;;;;;;1.25;1.15;;;8.90;99.90;;;;;;5055336;28;20269;-77
2021/12/13 08:50:03;;;;;;;2.80;1.08;;;8.90;99.90;;;;;;5054979;28;20201;-78
2021/12/13 08:52:33;;;;;;;0.40;0.40;;;8.90;99.90;;;;;;5056180;28;20647;-77
2021/12/13 08:55:07;;;;;;;1.13;0.80;;;8.90;99.90;;;;;;5059997;28;20252;-78
2021/12/13 08:57:46;;;;;;;0.40;0.40;;;8.90;99.90;;;;;;5058848;28;20212;-78
2021/12/13 09:00:36;;;;;;;1.05;0.95;;;8.90;99.90;;;;;;5057813;28;20297;-78
2021/12/13 09:03:16;;;;;;;2.15;1.02;;;8.90;99.90;;;;;;5058502;28;20197;-77
2021/12/13 09:05:56;;;;;;;4.90;1.25;;;9.00;99.90;;;;;;5055670;28;20202;-77
2021/12/13 09:08:28;;;;;;;0.80;0.50;;;9.00;99.90;;;;;;5054846;28;20221;-76
2021/12/13 09:11:00;;;;;;;0.40;0.38;;;9.00;99.90;;;;;;5053971;28;20191;-77
2021/12/13 09:13:49;;;;;;;0.40;0.40;;;9.00;99.90;;;;;;5053636;28;20185;-78
2021/12/13 09:16:20;;;;;;;0.40;0.40;;;9.00;99.90;;;;;;5055280;28;20198;-77
2021/12/13 09:18:48;;;;;;;0.40;0.30;;;9.00;99.90;;;;;;5054379;28;20221;-76
2021/12/13 09:21:20;;;;;;;0.80;0.80;;;9.00;99.90;;;;;;5054121;28;20194;-78
2021/12/13 09:23:50;;;;;;;2.17;0.50;;;9.00;99.90;;;;;;5054470;28;20685;-78
2021/12/13 09:26:21;;;;;;;0.40;0.30;;;9.00;99.90;;;;;;5054344;28;20193;-78
2021/12/13 09:28:52;;;;;;;0.80;0.80;;;9.00;99.90;;;;;;5053537;28;20225;-78
2021/12/13 09:31:23;;;;;;;1.05;1.05;;;9.00;99.90;;;;;;5054765;28;20246;-78
2021/12/13 09:33:54;;;;;;;0.77;0.77;;;9.10;99.90;;;;;;5054334;28;20212;-78
2021/12/13 09:36:23;;;;;;;0.40;0.30;;;9.10;99.90;;;;;;5053705;28;20213;-78
2021/12/13 09:38:56;;;;;;;0.60;0.60;;;9.10;99.90;;;;;;5053658;28;20576;-77
2021/12/13 09:41:33;;;;;;;0.50;0.50;;;9.10;99.90;;;;;;5054214;28;20690;-78
2021/12/13 09:44:05;;;;;;;0.40;0.40;;;9.10;99.90;;;;;;5052935;28;20682;-78
2021/12/13 09:46:37;;;;;;;0.40;0.30;;;9.10;99.90;;;;;;5054407;28;20178;-79
2021/12/13 09:49:10;;;;;;;0.60;0.60;;;9.10;99.90;;;;;;5053044;28;20225;-78
2021/12/13 09:51:42;;;;;;;2.90;0.90;;;9.10;99.90;;;;;;5053841;28;20185;-77
2021/12/13 09:54:10;;;;;;;0.50;0.50;;;9.10;99.90;;;;;;5053385;28;20181;-78
2021/12/13 09:56:49;;;;;;;0.50;0.50;;;9.10;99.90;;;;;;5053696;28;20212;-78
2021/12/13 09:59:20;;;;;;;0.40;0.30;;;9.10;99.90;;;;;;5053015;28;20214;-78
2021/12/13 10:01:48;;;;;;;0.40;0.30;;;9.10;99.90;;;;;;5053822;28;20212;-77
2021/12/13 10:04:17;;;;;;;0.40;0.30;;;9.10;99.90;;;;;;5053409;28;20208;-78
2021/12/13 10:06:47;;;;;;;0.40;0.40;;;9.20;99.90;;;;;;5052851;28;20194;-78
2021/12/13 10:09:20;;;;;;;0.60;0.50;;;9.20;99.90;;;;;;5052638;28;20212;-79
2021/12/13 10:11:51;;;;;;;0.80;0.80;;;9.20;99.90;;;;;;5053946;28;20699;-77
2021/12/13 10:14:21;;;;;;;1.98;1.88;;;9.30;99.90;;;;;;5053226;28;20224;-78
2021/12/13 10:16:50;;;;;;;0.95;0.90;;;9.30;99.90;;;;;;5053100;28;20545;-78
2021/12/13 10:19:23;;;;;;;1.60;1.50;;;9.30;99.90;;;;;;5051974;28;20311;-78
2021/12/13 10:21:50;;;;;;;0.40;0.30;;;9.30;99.90;;;;;;5052494;28;20182;-77
2021/12/13 10:24:21;;;;;;;0.90;0.90;;;9.30;99.90;;;;;;5052099;28;20207;-77
2021/12/13 10:26:53;;;;;;;1.25;1.15;;;9.30;99.90;;;;;;5052191;28;20296;-77
2021/12/13 10:29:23;;;;;;;1.52;1.42;;;9.20;99.90;;;;;;5051568;28;20233;-77
2021/12/13 10:31:55;;;;;;;0.50;0.50;;;9.20;99.90;;;;;;5052185;28;20568;-77
2021/12/13 10:34:25;;;;;;;0.40;0.30;;;9.20;99.90;;;;;;5051965;28;20214;-77
2021/12/13 10:36:54;;;;;;;0.63;0.50;;;9.20;99.90;;;;;;5051772;28;20217;-77
2021/12/13 10:39:24;;;;;;;1.92;1.35;;;9.30;99.90;;;;;;5051153;28;20218;-77
2021/12/13 10:41:55;;;;;;;2.45;1.67;;;9.30;99.90;;;;;;5052225;28;20198;-78
2021/12/13 10:44:28;;;;;;;1.15;1.02;;;9.30;99.90;;;;;;5051824;28;20189;-77
2021/12/13 10:47:00;;;;;;;0.40;0.35;;;9.30;99.90;;;;;;5051727;28;20193;-76
2021/12/13 10:49:29;;;;;;;0.50;0.50;;;9.30;99.90;;;;;;5051202;28;20224;-76
2021/12/13 10:51:59;;;;;;;0.82;0.82;;;9.30;99.90;;;;;;5051693;28;20198;-77
2021/12/13 10:54:30;;;;;;;0.40;0.30;;;9.30;99.90;;;;;;5051966;28;20568;-77
2021/12/13 10:57:01;;;;;;;0.40;0.30;;;9.30;99.90;;;;;;5051971;28;20218;-78
2021/12/13 10:59:32;;;;;;;0.55;0.52;;;9.30;99.90;;;;;;5051340;28;20221;-77
2021/12/13 11:02:06;;;;;;;0.40;0.40;;;9.40;99.90;;;;;;5051796;28;20189;-78
2021/12/13 11:04:36;;;;;;;0.40;0.35;;;9.40;99.90;;;;;;5051726;28;20201;-76
2021/12/13 11:07:06;;;;;;;1.25;0.98;;;9.40;99.90;;;;;;5051593;28;20213;-76
2021/12/13 11:09:35;;;;;;;0.40;0.30;;;9.30;99.90;;;;;;5051336;28;20579;-78
2021/12/13 11:12:06;;;;;;;0.40;0.30;;;9.30;99.90;;;;;;5051353;28;20201;-77
2021/12/13 11:14:35;;;;;;;0.50;0.50;;;9.30;99.90;;;;;;5051905;28;20189;-77
2021/12/13 11:17:15;;;;;;;0.40;0.30;;;9.30;99.90;;;;;;5052294;28;20218;-78
2021/12/13 11:19:46;;;;;;;0.50;0.40;;;9.30;99.90;;;;;;5052757;28;20217;-78
2021/12/13 11:22:18;;;;;;;0.40;0.30;;;9.30;99.90;;;;;;5052799;28;20200;-77
2021/12/13 11:24:50;;;;;;;1.75;1.50;;;9.30;99.90;;;;;;5054173;28;20194;-77
2021/12/13 11:27:22;;;;;;;1.77;0.77;;;9.30;99.90;;;;;;5053512;28;20202;-78
2021/12/13 11:29:51;;;;;;;0.50;0.40;;;9.40;99.90;;;;;;5071234;23;20229;-76
2021/12/13 11:33:05;;;;;;;0.50;0.50;;;9.40;99.90;;;;;;5050708;28;20201;-76
2021/12/13 11:36:11;;;;;;;0.40;0.30;;;9.40;99.90;;;;;;5050415;28;20218;-76
2021/12/13 11:39:03;;;;;;;1.58;0.80;;;9.40;99.90;;;;;;5054730;28;20213;-76
2021/12/13 11:42:12;;;;;;;1.88;1.42;;;9.50;99.90;;;;;;5054678;28;20179;-76
2021/12/13 11:44:54;;;;;;;0.60;0.50;;;9.50;99.90;;;;;;4990761;28;20198;-79
2021/12/13 11:48:04;;;;;;;0.40;0.35;;;9.60;99.90;;;;;;5054358;28;20208;-76
2021/12/13 11:51:09;;;;;;;1.67;1.58;;;9.70;99.90;;;;;;4972912;28;20730;-76
2021/12/13 11:54:14;;;;;;;0.90;0.88;;;9.80;99.90;;;;;;5052877;28;20208;-76
2021/12/13 11:57:26;;;;;;;0.40;0.40;;;9.90;99.90;;;;;;5054414;28;20208;-76
2021/12/13 12:00:12;;;;;;;0.40;0.40;;;9.90;99.90;;;;;;5017174;28;20615;-76
2021/12/13 12:03:10;;;;;;;1.67;1.58;;;10.00;99.90;;;;;;5054255;28;20206;-76
2021/12/13 12:06:03;;;;;;;1.50;1.27;;;9.90;99.90;;;;;;5054078;28;20223;-77
2021/12/13 12:09:03;;;;;;;2.03;1.92;;;9.80;99.90;;;;;;5054511;28;20575;-76
2021/12/13 12:12:12;;;;;;;0.47;0.43;;;9.90;99.90;;;;;;5033881;28;20194;-76
2021/12/13 12:14:39;;;;;;;0.88;0.88;;;9.90;99.90;;;;;;4972737;28;20236;-75
2021/12/13 12:17:08;;;;;;;0.40;0.32;;;9.90;99.90;;;;;;4972488;28;20352;-75
2021/12/13 12:19:40;;;;;;;0.40;0.35;;;9.90;99.90;;;;;;4972511;28;20614;-76
2021/12/13 12:22:09;;;;;;;0.95;0.95;;;10.00;99.90;;;;;;4971950;28;20204;-76
2021/12/13 12:24:37;;;;;;;1.58;1.48;;;10.00;99.90;;;;;;4972593;28;20209;-76
2021/12/13 12:27:07;;;;;;;0.40;0.40;;;10.00;99.90;;;;;;4972438;28;20216;-76
2021/12/13 12:29:38;;;;;;;0.80;0.70;;;10.00;99.90;;;;;;4971483;28;20243;-76
2021/12/13 12:32:12;;;;;;;0.40;0.30;;;9.90;99.90;;;;;;4972398;28;20204;-75
2021/12/13 12:34:48;;;;;;;0.70;0.70;;;10.00;99.90;;;;;;4972739;28;20196;-76
2021/12/13 12:37:52;;;;;;;1.02;0.93;;;10.00;99.90;;;;;;4971865;28;20729;-78
2021/12/13 12:40:25;;;;;;;0.40;0.30;;;10.00;99.90;;;;;;4951555;28;20228;-76
2021/12/13 12:42:54;;;;;;;0.40;0.38;;;10.00;99.90;;;;;;4971933;28;20197;-76
2021/12/13 12:45:28;;;;;;;0.68;0.68;;;10.00;99.90;;;;;;5009040;28;20195;-78
2021/12/13 12:48:09;;;;;;;0.40;0.40;;;10.10;99.90;;;;;;5052385;28;20195;-76
2021/12/13 12:50:40;;;;;;;3.33;0.60;;;10.10;99.90;;;;;;5052800;28;20664;-76
2021/12/13 12:53:10;;;;;;;0.70;0.70;;;10.00;99.90;;;;;;5054219;28;20190;-76
2021/12/13 12:55:40;;;;;;;1.00;0.90;;;10.00;99.90;;;;;;5054132;28;20656;-76
2021/12/13 12:58:10;;;;;;;0.40;0.30;;;10.00;99.90;;;;;;5053337;28;20600;-76
2021/12/13 13:00:37;;;;;;;1.08;1.08;;;10.00;99.90;;;;;;5053324;28;20202;-76
2021/12/13 13:03:05;;;;;;;0.40;0.32;;;9.90;99.90;;;;;;5053253;28;20210;-76
2021/12/13 13:05:32;;;;;;;0.60;0.60;;;9.90;99.90;;;;;;5053103;28;20202;-78
2021/12/13 13:07:59;;;;;;;0.40;0.30;;;10.00;99.90;;;;;;5052902;28;20198;-76
2021/12/13 13:10:36;;;;;;;0.55;0.55;;;10.00;99.90;;;;;;5052472;28;20211;-76
2021/12/13 13:13:10;;;;;;;0.50;0.40;;;10.00;99.90;;;;;;5052654;28;20189;-77
2021/12/13 13:15:41;;;;;;;0.40;0.38;;;10.00;99.90;;;;;;5052983;28;20218;-76
2021/12/13 13:18:13;;;;;;;0.40;0.30;;;10.00;99.90;;;;;;5052514;28;20201;-76
2021/12/13 13:20:43;;;;;;;0.40;0.40;;;10.00;99.90;;;;;;5052599;28;20198;-77
2021/12/13 13:23:11;;;;;;;0.70;0.70;;;10.00;99.90;;;;;;5052277;28;20197;-76
2021/12/13 13:25:41;;;;;;;0.50;0.50;;;10.00;99.90;;;;;;5052751;28;20202;-76
2021/12/13 13:28:16;;;;;;;0.40;0.30;;;10.00;99.90;;;;;;5052406;28;20584;-76
2021/12/13 13:30:47;;;;;;;0.40;0.40;;;10.00;99.90;;;;;;5052154;28;20206;-76
2021/12/13 13:33:16;;;;;;;0.40;0.30;;;10.00;99.90;;;;;;5052185;28;20202;-78